sensor_id;sensor_type;location;lat;lon;timestamp;P1;durP1;ratioP1;P2;durP2;ratioP2
15230;SDS011;32569;51.762;8.564;2024-03-23T00:54:48;2.10;;;1.90;;
15230;SDS011;32569;51.762;8.564;2024-03-23T00:57:18;2.30;;;2.10;;
15230;SDS011;32569;51.762;8.564;2024-03-23T00:59:44;2.20;;;2.00;;
15230;SDS011;32569;51.762;8.564;2024-03-23T01:02:10;2.20;;;1.97;;
15230;SDS011;32569;51.762;8.564;2024-03-23T01:04:39;1.87;;;1.77;;
15230;SDS011;32569;51.762;8.564;2024-03-23T01:07:08;1.93;;;1.83;;
15230;SDS011;32569;51.762;8.564;2024-03-23T01:09:34;2.10;;;1.90;;
15230;SDS011;32569;51.762;8.564;2024-03-23T01:12:05;1.67;;;1.57;;
15230;SDS011;32569;51.762;8.564;2024-03-23T01:14:31;2.13;;;1.93;;
15230;SDS011;32569;51.762;8.564;2024-03-23T01:16:57;2.53;;;2.33;;
15230;SDS011;32569;51.762;8.564;2024-03-23T01:19:23;2.10;;;1.90;;
15230;SDS011;32569;51.762;8.564;2024-03-23T01:21:50;2.03;;;1.90;;
15230;SDS011;32569;51.762;8.564;2024-03-23T01:24:15;2.10;;;2.00;;
15230;SDS011;32569;51.762;8.564;2024-03-23T01:26:45;2.07;;;1.90;;
15230;SDS011;32569;51.762;8.564;2024-03-23T01:29:19;2.20;;;2.10;;
15230;SDS011;32569;51.762;8.564;2024-03-23T01:31:46;2.03;;;1.93;;
15230;SDS011;32569;51.762;8.564;2024-03-23T01:34:12;2.67;;;2.23;;
15230;SDS011;32569;51.762;8.564;2024-03-23T01:36:38;2.60;;;2.40;;
15230;SDS011;32569;51.762;8.564;2024-03-23T01:39:05;2.03;;;1.83;;
15230;SDS011;32569;51.762;8.564;2024-03-23T01:41:34;2.20;;;2.10;;
15230;SDS011;32569;51.762;8.564;2024-03-23T01:44:00;2.37;;;2.17;;
15230;SDS011;32569;51.762;8.564;2024-03-23T01:46:33;1.90;;;1.80;;
15230;SDS011;32569;51.762;8.564;2024-03-23T01:48:59;2.60;;;2.27;;
15230;SDS011;32569;51.762;8.564;2024-03-23T01:51:27;2.40;;;2.20;;
15230;SDS011;32569;51.762;8.564;2024-03-23T01:53:53;1.87;;;1.77;;
15230;SDS011;32569;51.762;8.564;2024-03-23T01:56:20;2.63;;;2.17;;
15230;SDS011;32569;51.762;8.564;2024-03-23T01:58:46;2.57;;;2.37;;
15230;SDS011;32569;51.762;8.564;2024-03-23T02:01:13;2.17;;;1.90;;
15230;SDS011;32569;51.762;8.564;2024-03-23T02:03:40;3.63;;;2.03;;
15230;SDS011;32569;51.762;8.564;2024-03-23T02:06:06;1.93;;;1.83;;
15230;SDS011;32569;51.762;8.564;2024-03-23T02:08:33;2.83;;;2.47;;
15230;SDS011;32569;51.762;8.564;2024-03-23T02:11:00;2.47;;;2.00;;
15230;SDS011;32569;51.762;8.564;2024-03-23T02:13:26;2.47;;;2.17;;
15230;SDS011;32569;51.762;8.564;2024-03-23T02:15:53;1.80;;;1.70;;
15230;SDS011;32569;51.762;8.564;2024-03-23T02:18:18;2.30;;;2.13;;
15230;SDS011;32569;51.762;8.564;2024-03-23T02:20:46;2.10;;;1.90;;
15230;SDS011;32569;51.762;8.564;2024-03-23T02:23:17;2.33;;;2.00;;
15230;SDS011;32569;51.762;8.564;2024-03-23T02:25:44;2.20;;;2.00;;
15230;SDS011;32569;51.762;8.564;2024-03-23T02:28:10;2.60;;;2.10;;
15230;SDS011;32569;51.762;8.564;2024-03-23T02:30:36;2.10;;;2.00;;
15230;SDS011;32569;51.762;8.564;2024-03-23T02:33:02;2.00;;;1.83;;
15230;SDS011;32569;51.762;8.564;2024-03-23T02:35:30;2.40;;;2.20;;
15230;SDS011;32569;51.762;8.564;2024-03-23T02:37:58;2.40;;;2.20;;
15230;SDS011;32569;51.762;8.564;2024-03-23T02:40:27;1.93;;;1.83;;
15230;SDS011;32569;51.762;8.564;2024-03-23T02:42:53;2.50;;;2.17;;
15230;SDS011;32569;51.762;8.564;2024-03-23T02:45:20;2.27;;;2.07;;
15230;SDS011;32569;51.762;8.564;2024-03-23T02:47:45;2.13;;;1.93;;
15230;SDS011;32569;51.762;8.564;2024-03-23T02:50:19;2.80;;;2.00;;
15230;SDS011;32569;51.762;8.564;2024-03-23T02:52:45;1.90;;;1.80;;
15230;SDS011;32569;51.762;8.564;2024-03-23T02:55:14;1.97;;;1.87;;
15230;SDS011;32569;51.762;8.564;2024-03-23T02:57:42;2.13;;;2.00;;
15230;SDS011;32569;51.762;8.564;2024-03-23T03:00:08;2.10;;;1.93;;
15230;SDS011;32569;51.762;8.564;2024-03-23T03:02:36;2.17;;;1.63;;
15230;SDS011;32569;51.762;8.564;2024-03-23T03:05:03;2.03;;;1.93;;
15230;SDS011;32569;51.762;8.564;2024-03-23T03:07:30;1.80;;;1.70;;
15230;SDS011;32569;51.762;8.564;2024-03-23T03:09:56;2.00;;;1.90;;
15230;SDS011;32569;51.762;8.564;2024-03-23T03:12:22;1.70;;;1.60;;
15230;SDS011;32569;51.762;8.564;2024-03-23T03:14:50;1.90;;;1.73;;
15230;SDS011;32569;51.762;8.564;2024-03-23T03:17:16;1.73;;;1.63;;
15230;SDS011;32569;51.762;8.564;2024-03-23T03:19:42;1.53;;;1.43;;
15230;SDS011;32569;51.762;8.564;2024-03-23T03:22:08;1.43;;;1.33;;
15230;SDS011;32569;51.762;8.564;2024-03-23T03:24:35;1.63;;;1.53;;
15230;SDS011;32569;51.762;8.564;2024-03-23T03:27:01;1.50;;;1.40;;
15230;SDS011;32569;51.762;8.564;2024-03-23T03:29:28;1.67;;;1.40;;
15230;SDS011;32569;51.762;8.564;2024-03-23T03:32:01;1.63;;;1.50;;
15230;SDS011;32569;51.762;8.564;2024-03-23T03:34:27;1.40;;;1.40;;
15230;SDS011;32569;51.762;8.564;2024-03-23T03:36:54;1.30;;;1.20;;
15230;SDS011;32569;51.762;8.564;2024-03-23T03:39:20;1.60;;;1.50;;
15230;SDS011;32569;51.762;8.564;2024-03-23T03:41:47;1.47;;;1.43;;
15230;SDS011;32569;51.762;8.564;2024-03-23T03:44:13;1.10;;;1.10;;
15230;SDS011;32569;51.762;8.564;2024-03-23T03:46:40;1.30;;;1.20;;
15230;SDS011;32569;51.762;8.564;2024-03-23T03:49:07;1.20;;;1.20;;
15230;SDS011;32569;51.762;8.564;2024-03-23T03:51:33;1.30;;;1.30;;
15230;SDS011;32569;51.762;8.564;2024-03-23T03:53:59;1.40;;;1.30;;
15230;SDS011;32569;51.762;8.564;2024-03-23T03:56:26;1.73;;;1.37;;
15230;SDS011;32569;51.762;8.564;2024-03-23T03:58:52;2.00;;;1.30;;
15230;SDS011;32569;51.762;8.564;2024-03-23T04:01:19;1.50;;;1.40;;
15230;SDS011;32569;51.762;8.564;2024-03-23T04:03:45;1.50;;;1.40;;
15230;SDS011;32569;51.762;8.564;2024-03-23T04:06:13;1.73;;;1.50;;
15230;SDS011;32569;51.762;8.564;2024-03-23T04:08:44;1.27;;;1.20;;
15230;SDS011;32569;51.762;8.564;2024-03-23T04:11:10;1.30;;;1.30;;
15230;SDS011;32569;51.762;8.564;2024-03-23T04:13:36;1.57;;;1.47;;
15230;SDS011;32569;51.762;8.564;2024-03-23T04:16:03;1.63;;;1.53;;
15230;SDS011;32569;51.762;8.564;2024-03-23T04:18:29;1.70;;;1.60;;
15230;SDS011;32569;51.762;8.564;2024-03-23T04:20:55;1.67;;;1.60;;
15230;SDS011;32569;51.762;8.564;2024-03-23T04:23:25;1.40;;;1.30;;
15230;SDS011;32569;51.762;8.564;2024-03-23T04:25:52;1.50;;;1.40;;
15230;SDS011;32569;51.762;8.564;2024-03-23T04:28:18;1.73;;;1.63;;
15230;SDS011;32569;51.762;8.564;2024-03-23T04:30:45;1.37;;;1.27;;
15230;SDS011;32569;51.762;8.564;2024-03-23T04:33:10;1.43;;;1.33;;
15230;SDS011;32569;51.762;8.564;2024-03-23T04:35:37;1.60;;;1.50;;
15230;SDS011;32569;51.762;8.564;2024-03-23T04:38:03;1.40;;;1.40;;
15230;SDS011;32569;51.762;8.564;2024-03-23T04:40:31;1.90;;;1.80;;
15230;SDS011;32569;51.762;8.564;2024-03-23T04:43:01;1.67;;;1.53;;
15230;SDS011;32569;51.762;8.564;2024-03-23T04:45:32;1.83;;;1.73;;
15230;SDS011;32569;51.762;8.564;2024-03-23T04:47:59;1.50;;;1.40;;
15230;SDS011;32569;51.762;8.564;2024-03-23T04:50:25;1.70;;;1.60;;
15230;SDS011;32569;51.762;8.564;2024-03-23T04:52:52;1.50;;;1.40;;
15230;SDS011;32569;51.762;8.564;2024-03-23T04:55:18;1.53;;;1.43;;
15230;SDS011;32569;51.762;8.564;2024-03-23T04:57:45;1.67;;;1.57;;
15230;SDS011;32569;51.762;8.564;2024-03-23T05:00:13;1.60;;;1.50;;
15230;SDS011;32569;51.762;8.564;2024-03-23T05:02:45;1.73;;;1.50;;
15230;SDS011;32569;51.762;8.564;2024-03-23T05:05:11;1.90;;;1.60;;
15230;SDS011;32569;51.762;8.564;2024-03-23T05:07:37;1.70;;;1.60;;
15230;SDS011;32569;51.762;8.564;2024-03-23T05:10:04;1.50;;;1.50;;
15230;SDS011;32569;51.762;8.564;2024-03-23T05:12:30;1.60;;;1.50;;
15230;SDS011;32569;51.762;8.564;2024-03-23T05:14:58;1.37;;;1.37;;
15230;SDS011;32569;51.762;8.564;2024-03-23T05:17:24;1.70;;;1.43;;
15230;SDS011;32569;51.762;8.564;2024-03-23T05:19:51;1.70;;;1.53;;
15230;SDS011;32569;51.762;8.564;2024-03-23T05:22:16;1.37;;;1.30;;
15230;SDS011;32569;51.762;8.564;2024-03-23T05:24:44;2.20;;;1.53;;
15230;SDS011;32569;51.762;8.564;2024-03-23T05:27:12;1.67;;;1.57;;
15230;SDS011;32569;51.762;8.564;2024-03-23T05:29:40;1.90;;;1.80;;
15230;SDS011;32569;51.762;8.564;2024-03-23T05:32:07;1.70;;;1.60;;
15230;SDS011;32569;51.762;8.564;2024-03-23T05:34:34;1.33;;;1.27;;
15230;SDS011;32569;51.762;8.564;2024-03-23T05:37:00;1.43;;;1.33;;
15230;SDS011;32569;51.762;8.564;2024-03-23T05:39:28;1.37;;;1.33;;
15230;SDS011;32569;51.762;8.564;2024-03-23T05:41:53;2.00;;;1.77;;
15230;SDS011;32569;51.762;8.564;2024-03-23T05:44:20;1.43;;;1.33;;
15230;SDS011;32569;51.762;8.564;2024-03-23T05:46:46;1.57;;;1.47;;
15230;SDS011;32569;51.762;8.564;2024-03-23T05:49:15;2.40;;;1.70;;
15230;SDS011;32569;51.762;8.564;2024-03-23T05:51:43;1.57;;;1.47;;
15230;SDS011;32569;51.762;8.564;2024-03-23T05:54:10;1.93;;;1.40;;
15230;SDS011;32569;51.762;8.564;2024-03-23T05:56:35;1.73;;;1.63;;
15230;SDS011;32569;51.762;8.564;2024-03-23T05:59:05;1.50;;;1.40;;
15230;SDS011;32569;51.762;8.564;2024-03-23T06:01:31;1.50;;;1.40;;
15230;SDS011;32569;51.762;8.564;2024-03-23T06:03:58;1.50;;;1.40;;
15230;SDS011;32569;51.762;8.564;2024-03-23T06:06:28;1.53;;;1.30;;
15230;SDS011;32569;51.762;8.564;2024-03-23T06:08:56;1.53;;;1.43;;
15230;SDS011;32569;51.762;8.564;2024-03-23T06:11:24;1.43;;;1.33;;
15230;SDS011;32569;51.762;8.564;2024-03-23T06:13:52;1.60;;;1.50;;
15230;SDS011;32569;51.762;8.564;2024-03-23T06:16:23;1.60;;;1.50;;
15230;SDS011;32569;51.762;8.564;2024-03-23T06:18:50;1.47;;;1.37;;
15230;SDS011;32569;51.762;8.564;2024-03-23T06:21:16;1.43;;;1.33;;
15230;SDS011;32569;51.762;8.564;2024-03-23T06:23:44;1.27;;;1.20;;
15230;SDS011;32569;51.762;8.564;2024-03-23T06:26:15;1.80;;;1.33;;
15230;SDS011;32569;51.762;8.564;2024-03-23T06:28:42;1.57;;;1.47;;
15230;SDS011;32569;51.762;8.564;2024-03-23T06:31:09;1.57;;;1.47;;
15230;SDS011;32569;51.762;8.564;2024-03-23T06:33:35;1.63;;;1.30;;
15230;SDS011;32569;51.762;8.564;2024-03-23T06:36:01;1.50;;;1.40;;
15230;SDS011;32569;51.762;8.564;2024-03-23T06:38:28;1.10;;;1.10;;
15230;SDS011;32569;51.762;8.564;2024-03-23T06:40:56;1.93;;;1.40;;
15230;SDS011;32569;51.762;8.564;2024-03-23T06:43:22;1.63;;;1.47;;
15230;SDS011;32569;51.762;8.564;2024-03-23T06:45:52;1.00;;;1.00;;
15230;SDS011;32569;51.762;8.564;2024-03-23T06:48:18;1.60;;;1.50;;
15230;SDS011;32569;51.762;8.564;2024-03-23T06:50:44;1.30;;;1.30;;
15230;SDS011;32569;51.762;8.564;2024-03-23T06:53:11;1.47;;;1.37;;
15230;SDS011;32569;51.762;8.564;2024-03-23T06:55:37;1.53;;;1.43;;
15230;SDS011;32569;51.762;8.564;2024-03-23T06:58:05;1.83;;;1.67;;
15230;SDS011;32569;51.762;8.564;2024-03-23T07:00:32;1.80;;;1.70;;
15230;SDS011;32569;51.762;8.564;2024-03-23T07:02:57;1.80;;;1.70;;
15230;SDS011;32569;51.762;8.564;2024-03-23T07:05:24;1.63;;;1.53;;
15230;SDS011;32569;51.762;8.564;2024-03-23T07:07:50;2.43;;;2.00;;
15230;SDS011;32569;51.762;8.564;2024-03-23T07:10:17;1.70;;;1.60;;
15230;SDS011;32569;51.762;8.564;2024-03-23T07:12:42;1.67;;;1.57;;
15230;SDS011;32569;51.762;8.564;2024-03-23T07:15:10;1.87;;;1.77;;
15230;SDS011;32569;51.762;8.564;2024-03-23T07:17:36;1.83;;;1.73;;
15230;SDS011;32569;51.762;8.564;2024-03-23T07:20:03;1.83;;;1.73;;
15230;SDS011;32569;51.762;8.564;2024-03-23T07:22:29;2.00;;;1.90;;
15230;SDS011;32569;51.762;8.564;2024-03-23T07:24:56;2.00;;;1.90;;
15230;SDS011;32569;51.762;8.564;2024-03-23T07:27:24;2.23;;;2.03;;
15230;SDS011;32569;51.762;8.564;2024-03-23T07:29:51;2.20;;;2.00;;
15230;SDS011;32569;51.762;8.564;2024-03-23T07:32:18;2.13;;;2.03;;
15230;SDS011;32569;51.762;8.564;2024-03-23T07:34:45;2.20;;;2.00;;
15230;SDS011;32569;51.762;8.564;2024-03-23T07:37:10;2.07;;;1.97;;
15230;SDS011;32569;51.762;8.564;2024-03-23T07:39:37;3.00;;;2.67;;
15230;SDS011;32569;51.762;8.564;2024-03-23T07:42:04;2.70;;;2.50;;
15230;SDS011;32569;51.762;8.564;2024-03-23T07:44:31;2.60;;;2.40;;
15230;SDS011;32569;51.762;8.564;2024-03-23T07:46:57;2.73;;;2.53;;
15230;SDS011;32569;51.762;8.564;2024-03-23T07:49:26;3.17;;;2.97;;
15230;SDS011;32569;51.762;8.564;2024-03-23T07:51:52;2.60;;;2.50;;
15230;SDS011;32569;51.762;8.564;2024-03-23T07:54:18;3.20;;;2.67;;
15230;SDS011;32569;51.762;8.564;2024-03-23T07:56:44;3.20;;;2.90;;
15230;SDS011;32569;51.762;8.564;2024-03-23T07:59:11;3.10;;;2.90;;
15230;SDS011;32569;51.762;8.564;2024-03-23T08:01:37;3.37;;;3.07;;
15230;SDS011;32569;51.762;8.564;2024-03-23T08:04:04;3.43;;;3.13;;
15230;SDS011;32569;51.762;8.564;2024-03-23T08:06:32;2.87;;;2.67;;
15230;SDS011;32569;51.762;8.564;2024-03-23T08:08:59;3.63;;;3.33;;
15230;SDS011;32569;51.762;8.564;2024-03-23T08:11:25;3.30;;;3.10;;
15230;SDS011;32569;51.762;8.564;2024-03-23T08:13:51;3.17;;;2.90;;
15230;SDS011;32569;51.762;8.564;2024-03-23T08:16:17;3.33;;;3.13;;
15230;SDS011;32569;51.762;8.564;2024-03-23T08:18:44;3.30;;;3.10;;
15230;SDS011;32569;51.762;8.564;2024-03-23T08:21:10;3.23;;;3.03;;
15230;SDS011;32569;51.762;8.564;2024-03-23T08:23:38;3.20;;;3.00;;
15230;SDS011;32569;51.762;8.564;2024-03-23T08:26:05;3.00;;;2.80;;
15230;SDS011;32569;51.762;8.564;2024-03-23T08:28:32;4.50;;;3.20;;
15230;SDS011;32569;51.762;8.564;2024-03-23T08:31:00;3.53;;;3.23;;
15230;SDS011;32569;51.762;8.564;2024-03-23T08:33:28;3.20;;;3.00;;
15230;SDS011;32569;51.762;8.564;2024-03-23T08:35:54;3.20;;;2.90;;
15230;SDS011;32569;51.762;8.564;2024-03-23T08:38:21;2.67;;;2.47;;
15230;SDS011;32569;51.762;8.564;2024-03-23T08:40:53;2.90;;;2.70;;
15230;SDS011;32569;51.762;8.564;2024-03-23T08:43:22;2.80;;;2.60;;
15230;SDS011;32569;51.762;8.564;2024-03-23T08:45:48;3.23;;;2.93;;
15230;SDS011;32569;51.762;8.564;2024-03-23T08:48:15;3.43;;;3.13;;
15230;SDS011;32569;51.762;8.564;2024-03-23T08:50:40;3.40;;;3.10;;
15230;SDS011;32569;51.762;8.564;2024-03-23T08:53:07;3.27;;;3.00;;
15230;SDS011;32569;51.762;8.564;2024-03-23T08:55:33;2.90;;;2.70;;
15230;SDS011;32569;51.762;8.564;2024-03-23T08:58:01;3.10;;;2.90;;
15230;SDS011;32569;51.762;8.564;2024-03-23T09:00:27;3.20;;;2.70;;
15230;SDS011;32569;51.762;8.564;2024-03-23T09:02:54;2.43;;;2.23;;
15230;SDS011;32569;51.762;8.564;2024-03-23T09:05:20;3.00;;;2.80;;
15230;SDS011;32569;51.762;8.564;2024-03-23T09:07:47;2.63;;;2.43;;
15230;SDS011;32569;51.762;8.564;2024-03-23T09:10:13;2.33;;;2.23;;
15230;SDS011;32569;51.762;8.564;2024-03-23T09:12:40;3.00;;;2.57;;
15230;SDS011;32569;51.762;8.564;2024-03-23T09:15:07;2.50;;;2.30;;
15230;SDS011;32569;51.762;8.564;2024-03-23T09:17:34;2.50;;;2.40;;
15230;SDS011;32569;51.762;8.564;2024-03-23T09:19:59;2.77;;;2.57;;
15230;SDS011;32569;51.762;8.564;2024-03-23T09:22:26;2.23;;;2.13;;
15230;SDS011;32569;51.762;8.564;2024-03-23T09:24:51;2.83;;;2.20;;
15230;SDS011;32569;51.762;8.564;2024-03-23T09:27:21;2.67;;;2.47;;
15230;SDS011;32569;51.762;8.564;2024-03-23T09:29:47;3.07;;;2.77;;
15230;SDS011;32569;51.762;8.564;2024-03-23T09:32:15;2.33;;;2.23;;
15230;SDS011;32569;51.762;8.564;2024-03-23T09:34:40;2.80;;;2.43;;
15230;SDS011;32569;51.762;8.564;2024-03-23T09:37:07;2.60;;;2.40;;
15230;SDS011;32569;51.762;8.564;2024-03-23T09:39:33;2.30;;;2.10;;
15230;SDS011;32569;51.762;8.564;2024-03-23T09:41:59;2.43;;;2.23;;
15230;SDS011;32569;51.762;8.564;2024-03-23T09:44:25;2.23;;;2.13;;
15230;SDS011;32569;51.762;8.564;2024-03-23T09:46:54;2.23;;;2.03;;
15230;SDS011;32569;51.762;8.564;2024-03-23T09:49:22;2.60;;;2.20;;
15230;SDS011;32569;51.762;8.564;2024-03-23T09:51:48;2.43;;;2.23;;
15230;SDS011;32569;51.762;8.564;2024-03-23T09:54:14;2.27;;;2.10;;
15230;SDS011;32569;51.762;8.564;2024-03-23T09:56:41;1.60;;;1.53;;
15230;SDS011;32569;51.762;8.564;2024-03-23T09:59:07;2.00;;;1.90;;
15230;SDS011;32569;51.762;8.564;2024-03-23T10:01:34;1.70;;;1.60;;
15230;SDS011;32569;51.762;8.564;2024-03-23T10:04:00;2.13;;;1.93;;
15230;SDS011;32569;51.762;8.564;2024-03-23T10:06:28;1.87;;;1.63;;
15230;SDS011;32569;51.762;8.564;2024-03-23T10:08:53;2.30;;;2.10;;
15230;SDS011;32569;51.762;8.564;2024-03-23T10:11:20;2.63;;;1.63;;
15230;SDS011;32569;51.762;8.564;2024-03-23T10:13:46;1.90;;;1.80;;
15230;SDS011;32569;51.762;8.564;2024-03-23T10:16:20;1.97;;;1.87;;
15230;SDS011;32569;51.762;8.564;2024-03-23T10:18:55;2.10;;;1.83;;
15230;SDS011;32569;51.762;8.564;2024-03-23T10:21:30;1.80;;;1.70;;
15230;SDS011;32569;51.762;8.564;2024-03-23T10:23:57;1.73;;;1.63;;
15230;SDS011;32569;51.762;8.564;2024-03-23T10:26:33;1.93;;;1.83;;
15230;SDS011;32569;51.762;8.564;2024-03-23T10:29:04;2.63;;;1.90;;
15230;SDS011;32569;51.762;8.564;2024-03-23T10:31:33;2.10;;;1.80;;
15230;SDS011;32569;51.762;8.564;2024-03-23T10:34:02;1.40;;;1.30;;
15230;SDS011;32569;51.762;8.564;2024-03-23T10:36:30;1.03;;;1.03;;
15230;SDS011;32569;51.762;8.564;2024-03-23T10:38:56;0.80;;;0.80;;
15230;SDS011;32569;51.762;8.564;2024-03-23T10:41:24;1.00;;;1.00;;
15230;SDS011;32569;51.762;8.564;2024-03-23T10:43:53;1.30;;;1.30;;
15230;SDS011;32569;51.762;8.564;2024-03-23T10:46:20;1.10;;;1.10;;
15230;SDS011;32569;51.762;8.564;2024-03-23T10:48:47;1.57;;;1.47;;
15230;SDS011;32569;51.762;8.564;2024-03-23T10:51:14;1.17;;;1.17;;
15230;SDS011;32569;51.762;8.564;2024-03-23T10:53:47;1.10;;;1.10;;
15230;SDS011;32569;51.762;8.564;2024-03-23T10:56:13;1.80;;;1.27;;
15230;SDS011;32569;51.762;8.564;2024-03-23T10:58:42;1.30;;;1.30;;
15230;SDS011;32569;51.762;8.564;2024-03-23T11:01:11;1.10;;;1.10;;
15230;SDS011;32569;51.762;8.564;2024-03-23T11:03:38;1.10;;;1.10;;
15230;SDS011;32569;51.762;8.564;2024-03-23T11:06:09;1.10;;;1.10;;
15230;SDS011;32569;51.762;8.564;2024-03-23T11:08:36;1.30;;;1.30;;
15230;SDS011;32569;51.762;8.564;2024-03-23T11:11:14;1.10;;;1.10;;
15230;SDS011;32569;51.762;8.564;2024-03-23T11:13:43;1.30;;;1.30;;
15230;SDS011;32569;51.762;8.564;2024-03-23T11:16:21;1.10;;;1.10;;
15230;SDS011;32569;51.762;8.564;2024-03-23T11:18:49;1.33;;;1.23;;
15230;SDS011;32569;51.762;8.564;2024-03-23T11:24:15;2.20;;;1.80;;
15230;SDS011;32569;51.762;8.564;2024-03-23T11:26:42;1.23;;;1.23;;
15230;SDS011;32569;51.762;8.564;2024-03-23T11:29:09;1.50;;;1.40;;
15230;SDS011;32569;51.762;8.564;2024-03-23T11:31:36;1.67;;;1.57;;
15230;SDS011;32569;51.762;8.564;2024-03-23T11:34:03;1.53;;;1.43;;
15230;SDS011;32569;51.762;8.564;2024-03-23T11:36:32;1.83;;;1.60;;
15230;SDS011;32569;51.762;8.564;2024-03-23T11:38:59;1.70;;;1.60;;
15230;SDS011;32569;51.762;8.564;2024-03-23T11:41:46;1.53;;;1.43;;
15230;SDS011;32569;51.762;8.564;2024-03-23T11:44:14;1.67;;;1.57;;
15230;SDS011;32569;51.762;8.564;2024-03-23T11:46:40;1.43;;;1.43;;
15230;SDS011;32569;51.762;8.564;2024-03-23T11:49:17;1.80;;;1.70;;
15230;SDS011;32569;51.762;8.564;2024-03-23T11:51:46;1.70;;;1.60;;
15230;SDS011;32569;51.762;8.564;2024-03-23T11:54:13;1.60;;;1.50;;
15230;SDS011;32569;51.762;8.564;2024-03-23T11:56:39;1.53;;;1.43;;
15230;SDS011;32569;51.762;8.564;2024-03-23T11:59:07;1.50;;;1.40;;
15230;SDS011;32569;51.762;8.564;2024-03-23T12:01:33;1.73;;;1.63;;
15230;SDS011;32569;51.762;8.564;2024-03-23T12:04:00;1.90;;;1.80;;
15230;SDS011;32569;51.762;8.564;2024-03-23T12:06:27;2.03;;;1.83;;
15230;SDS011;32569;51.762;8.564;2024-03-23T12:08:54;2.10;;;2.00;;
15230;SDS011;32569;51.762;8.564;2024-03-23T12:11:31;1.63;;;1.53;;
15230;SDS011;32569;51.762;8.564;2024-03-23T12:13:59;1.93;;;1.83;;
15230;SDS011;32569;51.762;8.564;2024-03-23T12:16:26;2.57;;;1.77;;
15230;SDS011;32569;51.762;8.564;2024-03-23T12:18:53;1.90;;;1.80;;
15230;SDS011;32569;51.762;8.564;2024-03-23T12:21:30;2.10;;;1.90;;
15230;SDS011;32569;51.762;8.564;2024-03-23T12:23:57;1.60;;;1.50;;
15230;SDS011;32569;51.762;8.564;2024-03-23T12:26:23;1.87;;;1.77;;
15230;SDS011;32569;51.762;8.564;2024-03-23T12:28:50;1.40;;;1.40;;
15230;SDS011;32569;51.762;8.564;2024-03-23T12:31:16;1.50;;;1.40;;
15230;SDS011;32569;51.762;8.564;2024-03-23T12:33:44;1.67;;;1.57;;
15230;SDS011;32569;51.762;8.564;2024-03-23T12:36:10;1.20;;;1.20;;
15230;SDS011;32569;51.762;8.564;2024-03-23T12:38:38;1.33;;;1.27;;
15230;SDS011;32569;51.762;8.564;2024-03-23T12:41:03;1.30;;;1.30;;
15230;SDS011;32569;51.762;8.564;2024-03-23T12:43:31;1.30;;;1.30;;
15230;SDS011;32569;51.762;8.564;2024-03-23T12:45:56;1.20;;;1.20;;
15230;SDS011;32569;51.762;8.564;2024-03-23T12:48:23;0.90;;;0.90;;
15230;SDS011;32569;51.762;8.564;2024-03-23T12:50:55;1.10;;;1.10;;
15230;SDS011;32569;51.762;8.564;2024-03-23T12:53:22;1.10;;;1.10;;
15230;SDS011;32569;51.762;8.564;2024-03-23T12:55:47;1.10;;;1.10;;
15230;SDS011;32569;51.762;8.564;2024-03-23T12:58:14;1.00;;;1.00;;
15230;SDS011;32569;51.762;8.564;2024-03-23T13:00:40;0.90;;;0.90;;
15230;SDS011;32569;51.762;8.564;2024-03-23T13:03:07;0.90;;;0.90;;
15230;SDS011;32569;51.762;8.564;2024-03-23T13:05:39;1.00;;;1.00;;
15230;SDS011;32569;51.762;8.564;2024-03-23T13:08:07;0.93;;;0.93;;
15230;SDS011;32569;51.762;8.564;2024-03-23T13:10:33;1.00;;;1.00;;
15230;SDS011;32569;51.762;8.564;2024-03-23T13:12:59;1.10;;;1.10;;
15230;SDS011;32569;51.762;8.564;2024-03-23T13:15:25;0.90;;;0.90;;
15230;SDS011;32569;51.762;8.564;2024-03-23T13:17:52;0.90;;;0.90;;
15230;SDS011;32569;51.762;8.564;2024-03-23T13:20:19;1.00;;;1.00;;
15230;SDS011;32569;51.762;8.564;2024-03-23T13:22:46;1.00;;;1.00;;
15230;SDS011;32569;51.762;8.564;2024-03-23T13:25:16;1.10;;;1.10;;
15230;SDS011;32569;51.762;8.564;2024-03-23T13:27:43;0.97;;;0.97;;
15230;SDS011;32569;51.762;8.564;2024-03-23T13:30:10;0.90;;;0.90;;
15230;SDS011;32569;51.762;8.564;2024-03-23T13:32:37;1.10;;;1.10;;
15230;SDS011;32569;51.762;8.564;2024-03-23T13:35:03;1.37;;;1.30;;
15230;SDS011;32569;51.762;8.564;2024-03-23T13:37:31;1.20;;;1.10;;
15230;SDS011;32569;51.762;8.564;2024-03-23T13:39:57;1.10;;;1.10;;
15230;SDS011;32569;51.762;8.564;2024-03-23T13:42:26;1.47;;;1.30;;
15230;SDS011;32569;51.762;8.564;2024-03-23T13:44:51;1.60;;;1.30;;
15230;SDS011;32569;51.762;8.564;2024-03-23T13:47:18;1.50;;;1.40;;
15230;SDS011;32569;51.762;8.564;2024-03-23T13:49:43;1.10;;;1.10;;
15230;SDS011;32569;51.762;8.564;2024-03-23T13:52:11;1.40;;;1.10;;
15230;SDS011;32569;51.762;8.564;2024-03-23T13:54:37;1.10;;;1.10;;
15230;SDS011;32569;51.762;8.564;2024-03-23T13:57:03;1.27;;;1.27;;
15230;SDS011;32569;51.762;8.564;2024-03-23T13:59:31;1.73;;;1.63;;
15230;SDS011;32569;51.762;8.564;2024-03-23T14:01:58;1.03;;;1.03;;
15230;SDS011;32569;51.762;8.564;2024-03-23T14:04:23;1.70;;;1.60;;
15230;SDS011;32569;51.762;8.564;2024-03-23T14:06:50;1.30;;;1.30;;
15230;SDS011;32569;51.762;8.564;2024-03-23T14:09:16;1.30;;;1.20;;
15230;SDS011;32569;51.762;8.564;2024-03-23T14:11:46;1.40;;;1.40;;
15230;SDS011;32569;51.762;8.564;2024-03-23T14:14:11;1.20;;;1.20;;
15230;SDS011;32569;51.762;8.564;2024-03-23T14:16:39;1.13;;;1.13;;
15230;SDS011;32569;51.762;8.564;2024-03-23T14:19:05;1.20;;;1.20;;
15230;SDS011;32569;51.762;8.564;2024-03-23T14:21:32;0.90;;;0.90;;
15230;SDS011;32569;51.762;8.564;2024-03-23T14:23:59;1.20;;;1.20;;
15230;SDS011;32569;51.762;8.564;2024-03-23T14:26:26;1.10;;;1.10;;
15230;SDS011;32569;51.762;8.564;2024-03-23T14:28:51;1.40;;;1.30;;
15230;SDS011;32569;51.762;8.564;2024-03-23T14:31:18;1.40;;;1.40;;
15230;SDS011;32569;51.762;8.564;2024-03-23T14:33:45;1.60;;;1.40;;
15230;SDS011;32569;51.762;8.564;2024-03-23T14:36:12;1.90;;;1.40;;
15230;SDS011;32569;51.762;8.564;2024-03-23T14:38:38;1.20;;;1.10;;
15230;SDS011;32569;51.762;8.564;2024-03-23T14:41:05;1.30;;;1.30;;
15230;SDS011;32569;51.762;8.564;2024-03-23T14:43:30;1.23;;;1.23;;
15230;SDS011;32569;51.762;8.564;2024-03-23T14:46:06;1.20;;;1.20;;
15230;SDS011;32569;51.762;8.564;2024-03-23T14:48:33;1.10;;;1.10;;
15230;SDS011;32569;51.762;8.564;2024-03-23T14:51:01;1.23;;;1.20;;
15230;SDS011;32569;51.762;8.564;2024-03-23T14:53:29;1.20;;;1.20;;
15230;SDS011;32569;51.762;8.564;2024-03-23T14:55:56;1.10;;;1.10;;
15230;SDS011;32569;51.762;8.564;2024-03-23T14:58:22;1.30;;;1.30;;
15230;SDS011;32569;51.762;8.564;2024-03-23T15:00:49;1.30;;;1.30;;
15230;SDS011;32569;51.762;8.564;2024-03-23T15:03:16;1.80;;;1.70;;
15230;SDS011;32569;51.762;8.564;2024-03-23T15:05:52;1.70;;;1.60;;
15230;SDS011;32569;51.762;8.564;2024-03-23T15:08:20;1.70;;;1.60;;
15230;SDS011;32569;51.762;8.564;2024-03-23T15:10:47;1.60;;;1.50;;
15230;SDS011;32569;51.762;8.564;2024-03-23T15:13:13;1.80;;;1.70;;
15230;SDS011;32569;51.762;8.564;2024-03-23T15:15:40;1.80;;;1.70;;
15230;SDS011;32569;51.762;8.564;2024-03-23T15:18:08;1.87;;;1.77;;
15230;SDS011;32569;51.762;8.564;2024-03-23T15:20:35;1.50;;;1.50;;
15230;SDS011;32569;51.762;8.564;2024-03-23T15:23:01;1.40;;;1.40;;
15230;SDS011;32569;51.762;8.564;2024-03-23T15:25:29;1.47;;;1.40;;
15230;SDS011;32569;51.762;8.564;2024-03-23T15:27:55;1.50;;;1.40;;
15230;SDS011;32569;51.762;8.564;2024-03-23T15:30:22;1.47;;;1.47;;
15230;SDS011;32569;51.762;8.564;2024-03-23T15:32:48;1.30;;;1.30;;
15230;SDS011;32569;51.762;8.564;2024-03-23T15:35:15;1.20;;;1.20;;
15230;SDS011;32569;51.762;8.564;2024-03-23T15:37:40;1.40;;;1.30;;
15230;SDS011;32569;51.762;8.564;2024-03-23T15:40:08;1.43;;;1.33;;
15230;SDS011;32569;51.762;8.564;2024-03-23T15:42:36;1.10;;;1.10;;
15230;SDS011;32569;51.762;8.564;2024-03-23T15:45:05;1.30;;;1.20;;